Overview Statistics Trail Chart Weather Telemetry Raw packets
 

This is the latest recevied weather packets stored in our database for station/object OK1TBM-13. If no packets are shown the sender has not sent any weather packets the latest 10 day(s).

<< 40 41 42 43 44 45 46 >>
Time Temp. Humidity Pressure Rain* Wind** Luminosity Snow
1788293701 12.78° C 96% 1019.3 hPa 0 mm - 0 W/m² -
1788293402 12.78° C 96% 1019.3 hPa 0 mm - 0 W/m² -
1788293102 12.78° C 95% 1019.3 hPa 0 mm - 0 W/m² -
1788292802 12.78° C 95% 1019.3 hPa 0 mm - 0 W/m² -
1788292202 13.33° C 94% 1019.3 hPa 0 mm - 0 W/m² -
1788291306 13.33° C 93% 1019.3 hPa 0 mm - 0 W/m² -
1788290107 13.89° C 91% 1019.3 hPa 0 mm - 0 W/m² -
1788289202 14.44° C 90% 1019 hPa 0 mm - 0 W/m² -
1788288908 14.44° C 89% 1019 hPa 0 mm - 0 W/m² -
1788288602 14.44° C 89% 1019 hPa 0 mm - 0 W/m² -
1788288001 15° C 87% 1019 hPa 0 mm - 0 W/m² -
1788287401 15.56° C 85% 1019 hPa 0 mm - 0 W/m² -
1788286501 16.11° C 80% 1019 hPa 0 mm - 0 W/m² -
1788285902 16.67° C 79% 1019 hPa 0 mm - 0 W/m² -
1788285605 17.22° C 77% 1018.3 hPa 0 mm - 0 W/m² -
1788285301 17.78° C 76% 1018.3 hPa 0 mm - 1 W/m² -
1788285007 17.78° C 74% 1018.3 hPa 0 mm - 2 W/m² -
1788283502 20.56° C 64% 1018 hPa 0 mm - 13 W/m² -
1788283202 21.11° C 62% 1018 hPa 0 mm - 17 W/m² -
1788282901 21.67° C 59% 1018 hPa 0 mm - 21 W/m² -
1788282601 22.22° C 58% 1018 hPa 0 mm - 25 W/m² -
1788282301 22.22° C 57% 1018 hPa 0 mm - 27 W/m² -
1788282001 22.22° C 55% 1018 hPa 0 mm - 34 W/m² -
1788281721 21.67° C 55% 1018 hPa 0 mm - 37 W/m² -
1788281403 22.22° C 54% 1018 hPa 0 mm - 34 W/m² -

* Rain latest hour (hover to see other rain measurements)
** Current wind speed in m/s (hover to see current wind gust speed)